Airport Name : Bettles

Other Name : Bettles

ICAO : PABT

IATA : BTT

FAA : PBTT

Latitude : 66.913944

Longitude : -151.529056

Country : United States

Local Date and Time : 03 Dec 2020 19:50

 

TAF (Terminal Aerodrome Forecast)

PABT 032338Z 0400/0424 12004KT P6SM -SN SCT045 OVC070 FM040600 VRB03KT 6SM -SHSN BKN025 BKN040 FM041200 VRB03KT P6SM SCT025 BKN050

 

METAR (METeorological Aerodrome Report)

PABT 040434Z 20003KT 10SM -SN BKN012 M16/M18 A2981 RMK AO2 -SN IS IC T11611178 PNO

PABT 040353Z 00000KT 10SM -SN SCT012 SCT045 M17/M19 A2980 RMK AO2 SLP112 -SN IS IC T11721189 PNO

PABT 040309Z 19004KT 10SM -SN SCT016 SCT045 M14/M16 A2978 RMK AO2 T11391161 PNO

PABT 040253Z 18004KT 10SM -SN BKN016 BKN045 M13/M16 A2977 RMK AO2 SLP103 T11331156 51017 PNO

PABT 040153Z 00000KT 10SM -SN SCT014 BKN020 BKN080 M13/M16 A2976 RMK AO2 SLP099 -SN IS IC T11331156 PNO

PABT 040053Z 17004KT 10SM -SN FEW018 FEW042 BKN070 M13/M14 A2974 RMK SNE24B41 SLP091 T11281144

To Charter a Jet Click here.